createdAt,value
2018-07-07T00:03:10.751Z,13.02
2018-07-07T00:09:16.382Z,12.90
2018-07-07T00:15:23.091Z,12.99
2018-07-07T00:21:29.298Z,12.65
2018-07-07T00:27:35.061Z,12.64
2018-07-07T00:33:41.245Z,12.76
2018-07-07T00:39:47.027Z,13.14
2018-07-07T00:45:53.112Z,13.10
2018-07-07T00:51:58.897Z,13.03
2018-07-07T00:58:04.613Z,13.05
2018-07-07T01:04:10.331Z,13.13
2018-07-07T01:10:16.349Z,12.59
2018-07-07T01:16:24.808Z,12.65
2018-07-07T01:22:30.592Z,12.48
2018-07-07T01:28:36.268Z,12.32
2018-07-07T01:34:42.011Z,11.90
2018-07-07T01:40:47.938Z,11.80
2018-07-07T01:46:53.970Z,11.69
2018-07-07T01:52:59.837Z,11.45
2018-07-07T01:59:05.820Z,11.41
2018-07-07T02:05:11.544Z,11.26
2018-07-07T02:11:17.278Z,11.08
2018-07-07T02:17:28.008Z,11.10
2018-07-07T02:23:33.717Z,10.90
2018-07-07T02:29:40.285Z,10.99
2018-07-07T02:35:46.243Z,10.88
2018-07-07T02:41:52.595Z,10.68
2018-07-07T02:47:58.506Z,10.76
2018-07-07T02:54:04.302Z,10.78
2018-07-07T03:00:10.017Z,10.64
2018-07-07T03:06:15.690Z,10.56
2018-07-07T03:12:21.669Z,10.60
2018-07-07T03:18:27.502Z,10.49
2018-07-07T03:24:33.246Z,10.75
2018-07-07T03:30:38.969Z,10.86
2018-07-07T03:36:44.627Z,11.01
2018-07-07T03:42:51.180Z,11.16
2018-07-07T03:48:57.607Z,11.05
2018-07-07T03:55:03.617Z,10.91
2018-07-07T04:01:09.356Z,11.06
2018-07-07T04:07:15.426Z,11.30
2018-07-07T04:13:21.428Z,11.32
2018-07-07T04:19:27.203Z,11.47
2018-07-07T04:25:32.861Z,11.82
2018-07-07T04:31:38.573Z,11.86
2018-07-07T04:37:44.289Z,11.94
2018-07-07T04:43:50.566Z,12.10
2018-07-07T04:49:56.822Z,12.06
2018-07-07T04:56:02.609Z,12.15
2018-07-07T05:02:08.353Z,12.51
2018-07-07T05:08:14.235Z,12.60
2018-07-07T05:14:19.980Z,13.05
2018-07-07T05:20:25.893Z,13.43
2018-07-07T05:26:31.704Z,13.60
2018-07-07T05:32:37.617Z,13.85
2018-07-07T05:38:43.943Z,14.04
2018-07-07T05:44:49.481Z,14.21
2018-07-07T05:50:55.351Z,14.59
2018-07-07T05:57:01.053Z,14.96
2018-07-07T06:03:07.081Z,15.20
2018-07-07T06:09:12.809Z,15.58
2018-07-07T06:15:18.491Z,15.82
2018-07-07T06:21:24.799Z,15.90
2018-07-07T06:27:30.588Z,15.78
2018-07-07T06:33:36.465Z,15.82
2018-07-07T06:39:42.145Z,15.68
2018-07-07T06:45:48.004Z,15.89
2018-07-07T07:08:13.860Z,16.23
2018-07-07T07:14:20.230Z,17.03
2018-07-07T07:20:27.009Z,17.56
2018-07-07T07:26:32.757Z,17.43
2018-07-07T07:32:38.742Z,17.31
2018-07-07T07:38:44.428Z,17.80
2018-07-07T07:44:50.092Z,18.39
2018-07-07T07:50:56.104Z,18.71
2018-07-07T07:57:01.739Z,18.66
2018-07-07T08:03:07.878Z,18.44
2018-07-07T08:09:13.569Z,18.90
2018-07-07T08:15:19.916Z,19.20
2018-07-07T08:21:25.943Z,19.29
2018-07-07T08:27:31.751Z,19.93
2018-07-07T08:33:37.579Z,20.82
2018-07-07T08:39:43.384Z,21.07
2018-07-07T08:45:49.177Z,20.69
2018-07-07T08:51:56.012Z,20.86
2018-07-07T08:58:02.098Z,21.14
2018-07-07T09:04:07.917Z,21.51
2018-07-07T09:10:13.843Z,21.23
2018-07-07T09:16:19.545Z,22.00
2018-07-07T09:22:25.348Z,22.19
2018-07-07T09:28:31.044Z,21.88
2018-07-07T09:34:36.695Z,22.16
2018-07-07T09:40:42.484Z,22.48
2018-07-07T09:46:48.151Z,22.87
2018-07-07T09:52:55.437Z,22.96
2018-07-07T09:59:01.650Z,23.10
2018-07-07T10:05:07.942Z,23.19
2018-07-07T10:11:13.712Z,24.11
2018-07-07T10:17:19.740Z,24.27
2018-07-07T10:23:26.142Z,24.61
2018-07-07T10:29:31.778Z,23.99
2018-07-07T10:35:37.403Z,24.38
2018-07-07T10:41:43.926Z,24.99
2018-07-07T10:47:50.356Z,25.19
2018-07-07T10:53:56.343Z,25.03
2018-07-07T11:00:01.981Z,24.80
2018-07-07T11:06:07.892Z,24.65
2018-07-07T11:12:13.916Z,25.43
2018-07-07T11:18:19.567Z,25.86
2018-07-07T11:24:26.198Z,26.27
2018-07-07T11:30:32.302Z,26.63
2018-07-07T11:36:38.282Z,26.39
2018-07-07T11:42:43.948Z,26.12
2018-07-07T11:48:49.833Z,25.98
2018-07-07T11:54:55.996Z,26.64
2018-07-07T12:01:01.731Z,26.53
2018-07-07T12:07:07.484Z,27.49
2018-07-07T12:13:13.287Z,27.68
2018-07-07T12:19:18.941Z,27.77
2018-07-07T12:25:25.153Z,27.65
2018-07-07T12:31:30.799Z,27.37
2018-07-07T12:37:36.523Z,27.29
2018-07-07T12:43:42.379Z,27.64
2018-07-07T12:49:48.041Z,27.46
2018-07-07T12:55:55.008Z,27.77
2018-07-07T13:02:00.692Z,27.71
2018-07-07T13:08:06.569Z,27.48
2018-07-07T13:14:12.490Z,27.26
2018-07-07T13:20:18.102Z,26.91
2018-07-07T13:26:24.671Z,27.29
2018-07-07T13:32:30.385Z,27.42
2018-07-07T13:38:37.485Z,27.39
2018-07-07T13:44:43.441Z,28.87
2018-07-07T13:50:49.186Z,28.62
2018-07-07T13:56:55.354Z,29.21
2018-07-07T14:03:01.378Z,29.47
2018-07-07T14:09:08.360Z,29.27
2018-07-07T14:15:13.981Z,29.11
2018-07-07T14:21:19.732Z,28.73
2018-07-07T14:27:25.720Z,29.21
2018-07-07T14:33:31.589Z,28.88
2018-07-07T14:40:00.398Z,28.83
2018-07-07T14:46:09.350Z,28.76
2018-07-07T14:52:15.452Z,28.64
2018-07-07T14:58:22.048Z,29.04
2018-07-07T15:04:27.784Z,30.13
2018-07-07T15:10:33.604Z,29.77
2018-07-07T15:16:39.307Z,28.46
2018-07-07T15:22:45.292Z,28.27
2018-07-07T15:28:51.267Z,29.01
2018-07-07T15:34:57.609Z,30.18
2018-07-07T15:41:03.580Z,29.82
2018-07-07T15:47:09.290Z,30.14
2018-07-07T15:53:15.145Z,29.67
2018-07-07T15:59:22.477Z,29.73
2018-07-07T16:05:28.318Z,29.92
2018-07-07T16:11:34.536Z,29.56
2018-07-07T16:17:40.370Z,29.36
2018-07-07T16:23:46.424Z,29.21
2018-07-07T16:29:54.018Z,29.00
2018-07-07T16:35:59.914Z,29.98
2018-07-07T16:42:05.654Z,32.23
2018-07-07T16:48:11.447Z,33.57
2018-07-07T16:54:20.077Z,33.88
2018-07-07T17:00:27.565Z,33.10
2018-07-07T17:06:33.807Z,33.99
2018-07-07T17:12:39.879Z,34.34
2018-07-07T17:18:46.161Z,34.38
2018-07-07T17:24:53.985Z,34.98
2018-07-07T17:31:02.303Z,34.13
2018-07-07T17:37:08.106Z,33.84
2018-07-07T17:43:14.081Z,33.61
2018-07-07T17:49:19.901Z,32.51
2018-07-07T17:55:27.090Z,32.44
2018-07-07T18:01:33.425Z,32.16
2018-07-07T18:07:39.232Z,32.31
2018-07-07T18:13:44.945Z,31.36
2018-07-07T18:19:51.267Z,30.30
2018-07-07T18:25:57.068Z,29.02
2018-07-07T18:32:02.726Z,27.98
2018-07-07T18:38:08.741Z,26.84
2018-07-07T18:44:14.541Z,26.36
2018-07-07T18:50:20.315Z,25.89
2018-07-07T18:56:26.170Z,25.04
2018-07-07T19:02:31.779Z,23.93
2018-07-07T19:08:37.533Z,23.29
2018-07-07T19:14:43.356Z,22.74
2018-07-07T19:20:54.180Z,22.33
2018-07-07T19:27:03.711Z,21.99
2018-07-07T19:33:14.596Z,21.50
2018-07-07T19:39:20.399Z,21.22
2018-07-07T19:45:26.433Z,21.03
2018-07-07T19:51:33.173Z,20.67
2018-07-07T19:57:38.880Z,20.50
2018-07-07T20:03:44.689Z,20.30
2018-07-07T20:09:50.518Z,20.04
2018-07-07T20:16:21.209Z,19.90
2018-07-07T20:22:27.148Z,19.70
2018-07-07T20:28:38.095Z,19.44
2018-07-07T20:34:43.755Z,19.37
2018-07-07T20:40:50.453Z,19.33
2018-07-07T20:46:55.984Z,19.32
2018-07-07T20:53:01.543Z,19.18
2018-07-07T20:59:07.389Z,19.08
2018-07-07T21:05:13.190Z,18.82
2018-07-07T21:11:19.166Z,18.62
2018-07-07T21:17:25.520Z,18.44
2018-07-07T21:23:31.231Z,18.33
2018-07-07T21:29:36.921Z,18.08
2018-07-07T21:35:42.663Z,17.47
2018-07-07T21:41:48.548Z,17.37
2018-07-07T21:47:55.737Z,17.16
2018-07-07T21:54:02.007Z,17.13
2018-07-07T22:00:07.367Z,16.94
2018-07-07T22:06:13.707Z,16.83
2018-07-07T22:12:19.623Z,16.71
2018-07-07T22:18:26.030Z,16.47
2018-07-07T22:24:31.877Z,16.35
2018-07-07T22:30:37.720Z,16.36
2018-07-07T22:36:43.458Z,16.32
2018-07-07T22:42:49.819Z,16.09
2018-07-07T22:48:56.339Z,16.02
2018-07-07T22:55:02.096Z,16.03
2018-07-07T23:01:08.024Z,15.97
2018-07-07T23:07:14.128Z,15.84
2018-07-07T23:13:20.155Z,15.55
2018-07-07T23:19:26.055Z,15.51
2018-07-07T23:25:31.762Z,15.11
2018-07-07T23:31:37.529Z,15.13
2018-07-07T23:37:43.532Z,15.00
2018-07-07T23:43:49.676Z,15.16
2018-07-07T23:49:55.445Z,14.98
2018-07-07T23:56:01.256Z,15.01
